map of SCSN home
SCSN - Airport
Location
City:  Santo Domingo, Valparaíso, Chile
ICAO:SCSN

Details
Type:Airport (Aerodrome, Airfield)
Latitude:33°39'23"S (-33.656388)
Longitude:71°36'52"W (-71.614443)
Variation:2.56°E (WMM2015 magnetic declination)
-0.15° annual change
Runways:1
Longest:2297 × 59 ft (700 × 18 m), paved

Weather
METAR:SCSN 192000Z 24012KT CAVOK 19/12 Q1013

Related Locations
Nearby:
Farthest:ZLLT: 12394 mi / 19947 km
Xi'an (Xian) [Lintong], 61, CN

Find:

   beyond  
but within

Other Information
Maps:
NOTAMs:
Links:
Sources:

  
  • flag of Chile
  • flag of Valparaíso
  

Sectional Chart

Flight Planning
at skyvector.com

Satellite Image

Google Maps Satellite view

 

Copyright © 2004-2018 Karl L. Swartz. All rights reserved.
The Great Circle Mapper name and logo are trademarks of the Great Circle Mapper.
All other trademarks mentioned herein belong to their respective owners.
Please see credits for attibutions and further copyright information.

  Follow gcmap on Facebook Follow gcmap on Twitter Follow gcmap on Google+ GCmap on LinkedIn

hCard Microformat

Geo Microformat